Sherman, Texas
Current Conditions -  °F | °C
As of 4:15 AM on Tuesday 27 Jan 2015 (Local Time) from KGYI Reporting Station
Clear Clear  
Wind Chill: 48°   Ceiling: Unl
Heat Index: 48°   Visibility: 10mi
Dew Point: 40°   Wind: 3mph
Humidity: 74%   Direction: 240°WSW
Pressure: 30.09"   Gusts: NA
Location:  33.64°N, 96.61°W
Report Text: KGYI 271015Z AUTO 24003KT 10SM CLR 09/05 A3009 RMK AO2 T00900045
Loading
Personal Weather Stations






























Interactive Weather Map New forecast layout! Learn more

10-Day Weather Forecast

Advertisements
Track Severe Weather on mobile